Time;durP1;ratioP1;P1;durP2;ratioP2;P2;SDS_P1;SDS_P2;PMS_P1;PMS_P2;Temp;Humidity;BMP_temperature;BMP_pressure;BME280_temperature;BME280_humidity;BME280_pressure;Samples;Min_cycle;Max_cycle;Signal;HPM_P1;HPM_P2
2020/12/25 00:02:26;;;;;;;4.05;2.20;;;;;;;2.90;100.00;97808.25;1783455;80;21308;-59
2020/12/25 00:04:54;;;;;;;3.58;2.10;;;;;;;2.90;100.00;97798.06;1783789;80;21146;-59
2020/12/25 00:07:21;;;;;;;3.58;1.87;;;;;;;2.90;100.00;97803.16;1783809;79;21140;-59
2020/12/25 00:09:49;;;;;;;3.30;1.95;;;;;;;2.93;100.00;97819.81;1783466;79;21288;-59
2020/12/25 00:12:16;;;;;;;5.35;2.77;;;;;;;2.98;100.00;97794.88;1783400;79;21237;-59
2020/12/25 00:14:44;;;;;;;3.40;2.12;;;;;;;3.04;100.00;97827.27;1783551;79;21119;-60
2020/12/25 00:17:12;;;;;;;6.00;3.02;;;;;;;3.09;100.00;97794.25;1783447;80;21150;-59
2020/12/25 00:19:39;;;;;;;9.33;3.67;;;;;;;3.16;100.00;97832.64;1783474;80;21296;-58
2020/12/25 00:22:07;;;;;;;6.97;3.85;;;;;;;3.28;100.00;97828.63;1783627;80;21320;-59
2020/12/25 00:24:35;;;;;;;9.95;3.37;;;;;;;3.36;100.00;97837.29;1783402;79;21150;-60
2020/12/25 00:27:02;;;;;;;6.12;2.95;;;;;;;3.44;100.00;97823.03;1783449;79;21146;-59
2020/12/25 00:29:30;;;;;;;9.15;4.47;;;;;;;3.50;100.00;97839.73;1783457;80;21149;-59
2020/12/25 00:31:57;;;;;;;7.62;3.70;;;;;;;3.55;100.00;97843.23;1783571;80;21312;-59
2020/12/25 00:34:25;;;;;;;9.20;5.42;;;;;;;3.57;100.00;97816.07;1783708;79;21336;-59
2020/12/25 00:36:53;;;;;;;7.90;2.85;;;;;;;3.55;100.00;97838.13;1783466;80;21153;-59
2020/12/25 00:39:21;;;;;;;7.20;3.15;;;;;;;3.48;100.00;97813.32;1783493;80;21178;-59
2020/12/25 00:41:51;;;;;;;7.37;4.00;;;;;;;3.47;100.00;97812.89;1783524;79;21174;-59
2020/12/25 00:44:19;;;;;;;6.53;3.17;;;;;;;3.47;100.00;97810.34;1783645;80;21296;-59
2020/12/25 00:46:48;;;;;;;6.42;2.70;;;;;;;3.42;100.00;97788.98;1783490;79;21170;-59
2020/12/25 00:49:17;;;;;;;7.72;2.42;;;;;;;3.41;100.00;97801.27;1783453;80;21182;-59
2020/12/25 00:51:47;;;;;;;5.80;3.00;;;;;;;3.39;100.00;97786.38;1783601;79;21134;-60
2020/12/25 00:54:17;;;;;;;5.47;2.55;;;;;;;3.37;100.00;97807.16;1783713;80;21695;-59
2020/12/25 00:56:58;;;;;;;6.40;3.42;;;;;;;3.36;100.00;97791.00;1783474;79;21142;-59
2020/12/25 00:59:45;;;;;;;6.85;3.12;;;;;;;3.35;100.00;97779.48;1783370;80;21169;-59
2020/12/25 01:02:12;;;;;;;7.25;3.52;;;;;;;3.39;100.00;97769.80;1783519;80;21174;-59
2020/12/25 01:04:40;;;;;;;6.37;3.42;;;;;;;3.37;100.00;97763.38;1783451;80;21158;-58
2020/12/25 01:07:08;;;;;;;7.22;3.62;;;;;;;3.35;100.00;97756.11;1783732;79;21288;-59
2020/12/25 01:09:36;;;;;;;8.80;4.03;;;;;;;3.35;100.00;97775.66;1783599;80;21350;-58
2020/12/25 01:12:04;;;;;;;7.30;3.60;;;;;;;3.38;100.00;97752.77;1783452;79;21276;-59
2020/12/25 01:14:32;;;;;;;8.85;5.25;;;;;;;3.45;100.00;97776.29;1783791;79;21154;-58
2020/12/25 01:16:59;;;;;;;7.37;4.03;;;;;;;3.53;100.00;97754.75;1783697;79;21166;-59
2020/12/25 01:19:28;;;;;;;7.12;4.15;;;;;;;3.54;100.00;97748.42;1783680;79;21143;-59
2020/12/25 01:21:55;;;;;;;9.20;4.65;;;;;;;3.55;100.00;97738.66;1783367;79;21229;-59
2020/12/25 01:24:28;;;;;;;7.53;4.25;;;;;;;3.58;100.00;97750.60;1783471;79;21285;-58
2020/12/25 01:26:55;;;;;;;9.53;4.87;;;;;;;3.58;100.00;97748.91;1783628;80;21628;-59
2020/12/25 01:29:23;;;;;;;9.25;5.85;;;;;;;3.60;100.00;97745.97;1783383;79;21135;-59
2020/12/25 01:31:51;;;;;;;11.55;6.12;;;;;;;3.56;100.00;97763.34;1783562;79;21174;-61
2020/12/25 01:34:21;;;;;;;12.75;7.62;;;;;;;3.58;100.00;97760.38;1783688;79;21121;-58
2020/12/25 01:36:48;;;;;;;13.00;8.20;;;;;;;3.56;100.00;97759.91;1783599;79;21289;-58
2020/12/25 01:39:16;;;;;;;13.13;7.45;;;;;;;3.59;100.00;97755.75;1783484;80;21154;-58
2020/12/25 01:41:43;;;;;;;13.80;7.55;;;;;;;3.65;100.00;97749.89;1783386;79;21154;-58
2020/12/25 01:44:11;;;;;;;15.50;8.80;;;;;;;3.73;100.00;97757.69;1783347;79;21287;-58
2020/12/25 01:46:39;;;;;;;14.47;8.20;;;;;;;3.79;100.00;97759.06;1783605;80;21284;-59
2020/12/25 01:49:07;;;;;;;17.60;8.63;;;;;;;3.82;100.00;97754.04;1783679;80;21282;-57
2020/12/25 01:51:36;;;;;;;11.75;6.85;;;;;;;3.84;100.00;97754.90;1783585;80;21284;-58
2020/12/25 01:54:05;;;;;;;14.93;7.83;;;;;;;3.86;100.00;97756.65;1783407;79;21111;-58
2020/12/25 01:56:33;;;;;;;14.50;8.48;;;;;;;3.90;100.00;97769.06;1783483;79;21289;-58
2020/12/25 01:59:01;;;;;;;18.30;9.30;;;;;;;3.94;100.00;97756.78;1783566;79;21147;-58
2020/12/25 02:01:29;;;;;;;16.90;9.35;;;;;;;3.98;100.00;97754.73;1783459;79;21145;-58
2020/12/25 02:03:58;;;;;;;17.35;8.83;;;;;;;3.97;100.00;97767.46;1761653;80;21300;-58
2020/12/25 02:06:26;;;;;;;16.55;8.85;;;;;;;3.99;100.00;97755.59;1783324;79;21130;-59
2020/12/25 02:08:54;;;;;;;16.12;8.80;;;;;;;4.04;100.00;97759.94;1783272;79;21268;-60
2020/12/25 02:11:21;;;;;;;17.27;9.33;;;;;;;4.11;100.00;97767.30;1747656;81;21561;-59
2020/12/25 02:13:50;;;;;;;18.45;9.30;;;;;;;4.17;100.00;97751.22;1748535;81;21143;-59
2020/12/25 02:16:17;;;;;;;16.05;9.55;;;;;;;4.19;100.00;97754.66;1802798;79;21150;-58
2020/12/25 02:18:45;;;;;;;15.58;8.05;;;;;;;4.23;100.00;97743.25;1802736;77;21244;-58
2020/12/25 02:21:12;;;;;;;15.18;8.35;;;;;;;4.26;100.00;97747.13;1776625;81;21161;-59
2020/12/25 02:23:40;;;;;;;14.43;8.00;;;;;;;4.31;100.00;97757.42;1747096;81;21163;-59
2020/12/25 02:26:07;;;;;;;18.70;10.03;;;;;;;4.35;100.00;97745.13;1797972;78;21170;-59
2020/12/25 02:28:35;;;;;;;14.70;7.65;;;;;;;4.37;100.00;97747.29;1816353;79;21134;-59
2020/12/25 02:31:03;;;;;;;15.75;8.63;;;;;;;4.40;100.00;97745.20;1743811;82;21383;-58
2020/12/25 02:33:31;;;;;;;16.35;8.80;;;;;;;4.42;100.00;97730.77;1815324;79;21281;-57
2020/12/25 02:35:59;;;;;;;18.57;10.95;;;;;;;4.43;100.00;97730.80;1815514;79;21166;-58
2020/12/25 02:38:27;;;;;;;19.82;10.93;;;;;;;4.46;100.00;97750.42;1745989;82;21592;-58
2020/12/25 02:40:54;;;;;;;23.27;11.68;;;;;;;4.47;100.00;97750.43;1791466;79;21276;-59
2020/12/25 02:43:22;;;;;;;18.77;10.45;;;;;;;4.50;100.00;97744.12;1783267;80;21148;-59
2020/12/25 02:45:50;;;;;;;18.77;11.57;;;;;;;4.51;100.00;97744.55;1783307;80;21165;-58
2020/12/25 02:48:17;;;;;;;19.52;10.88;;;;;;;4.53;100.00;97754.80;1783384;80;21163;-59
2020/12/25 02:50:45;;;;;;;18.70;10.68;;;;;;;4.54;100.00;97752.25;1783645;79;21336;-59
2020/12/25 02:53:12;;;;;;;22.20;11.35;;;;;;;4.57;100.00;97744.63;1783250;80;21268;-58
2020/12/25 02:55:40;;;;;;;23.27;11.93;;;;;;;4.60;100.00;97755.73;1792965;79;21206;-59
2020/12/25 02:58:08;;;;;;;19.98;11.68;;;;;;;4.59;100.00;97743.38;1808299;79;21276;-59
2020/12/25 03:00:36;;;;;;;20.77;11.55;;;;;;;4.61;100.00;97747.25;1814731;79;21359;-59
2020/12/25 03:03:03;;;;;;;20.02;11.05;;;;;;;4.65;100.00;97746.44;1811167;79;21166;-58
2020/12/25 03:05:33;;;;;;;25.35;12.07;;;;;;;4.70;100.00;97748.64;1800957;80;21581;-59
2020/12/25 03:08:01;;;;;;;24.25;12.60;;;;;;;4.73;100.00;97747.40;1720694;83;21155;-60
2020/12/25 03:10:30;;;;;;;25.40;13.10;;;;;;;4.74;100.00;97760.22;1800907;79;21189;-59
2020/12/25 03:12:58;;;;;;;26.68;14.43;;;;;;;4.78;100.00;97749.60;1720474;83;21306;-60
2020/12/25 03:15:25;;;;;;;23.52;12.63;;;;;;;4.81;100.00;97754.78;1801337;80;21273;-59
2020/12/25 03:17:53;;;;;;;31.02;13.50;;;;;;;4.88;100.00;97760.82;1800960;79;21155;-59
2020/12/25 03:20:21;;;;;;;24.75;13.43;;;;;;;4.92;100.00;97772.39;1720698;83;21139;-59
2020/12/25 03:22:48;;;;;;;25.32;12.85;;;;;;;4.94;100.00;97776.27;1801126;80;21276;-59
2020/12/25 03:25:16;;;;;;;25.57;13.65;;;;;;;4.94;100.00;97772.43;1801021;80;21297;-59
2020/12/25 03:27:43;;;;;;;24.20;12.50;;;;;;;4.93;100.00;97777.94;1801045;80;21269;-59
2020/12/25 03:30:11;;;;;;;30.90;15.10;;;;;;;4.96;100.00;97775.45;1801053;80;21139;-59
2020/12/25 03:32:38;;;;;;;27.60;15.32;;;;;;;5.04;100.00;97782.34;1801097;80;21562;-59
2020/12/25 03:35:06;;;;;;;30.75;15.20;;;;;;;5.08;100.00;97785.39;1720489;83;21194;-59
2020/12/25 03:37:34;;;;;;;28.75;15.23;;;;;;;5.12;100.00;97796.11;1801272;79;21115;-59
2020/12/25 03:40:04;;;;;;;28.83;15.53;;;;;;;5.13;100.00;97804.21;1786801;80;21155;-59
2020/12/25 03:42:31;;;;;;;28.02;15.90;;;;;;;5.14;100.00;97791.85;1781767;80;21135;-59
2020/12/25 03:44:59;;;;;;;32.98;17.30;;;;;;;5.16;100.00;97788.48;1778148;80;21127;-59
2020/12/25 03:47:27;;;;;;;24.10;15.08;;;;;;;5.20;100.00;97790.25;1781095;80;21277;-59
2020/12/25 03:49:55;;;;;;;31.25;16.32;;;;;;;5.25;100.00;97785.20;1772298;80;21236;-58
2020/12/25 03:52:23;;;;;;;31.17;16.75;;;;;;;5.28;100.00;97786.51;1769471;81;21271;-60
2020/12/25 03:54:51;;;;;;;28.77;16.27;;;;;;;5.30;100.00;97789.10;1769648;81;21717;-59
2020/12/25 03:57:19;;;;;;;31.27;16.60;;;;;;;5.33;100.00;97787.86;1769423;81;21122;-58
2020/12/25 03:59:46;;;;;;;33.80;17.50;;;;;;;5.38;100.00;97773.42;1769480;81;21297;-59
2020/12/25 04:02:14;;;;;;;34.53;17.23;;;;;;;5.44;100.00;97775.65;1769543;81;21215;-59
2020/12/25 04:04:42;;;;;;;33.33;18.57;;;;;;;5.49;100.00;97779.52;1781278;80;21349;-59
2020/12/25 04:07:11;;;;;;;31.97;18.17;;;;;;;5.56;100.00;97777.89;1783525;80;21150;-59
2020/12/25 04:09:38;;;;;;;35.98;18.48;;;;;;;5.57;100.00;97778.32;1802510;79;21361;-59
2020/12/25 04:12:06;;;;;;;33.13;19.12;;;;;;;5.58;100.00;97773.23;1792477;79;21298;-63
2020/12/25 04:14:34;;;;;;;34.63;17.67;;;;;;;5.64;100.00;97777.56;1783701;80;21554;-59
2020/12/25 04:17:02;;;;;;;34.13;18.57;;;;;;;5.70;100.00;97772.53;1783410;80;21159;-59
2020/12/25 04:19:29;;;;;;;35.15;18.17;;;;;;;5.75;99.91;97780.23;1783670;80;21321;-59
2020/12/25 04:21:59;;;;;;;31.82;17.52;;;;;;;5.78;99.83;97783.70;1783653;80;21179;-60
2020/12/25 04:24:27;;;;;;;34.70;18.42;;;;;;;5.81;99.69;97794.39;1783588;80;21179;-60
2020/12/25 04:26:55;;;;;;;35.10;19.20;;;;;;;5.81;99.48;97788.84;1783435;80;21282;-59
2020/12/25 04:29:23;;;;;;;33.15;17.15;;;;;;;5.82;99.51;97793.54;1818822;79;21237;-58
2020/12/25 04:31:51;;;;;;;32.40;18.57;;;;;;;5.82;99.42;97791.83;1821542;79;21177;-59
2020/12/25 04:34:18;;;;;;;33.25;18.32;;;;;;;5.83;99.42;97789.73;1821417;79;21174;-58
2020/12/25 04:36:46;;;;;;;29.27;16.65;;;;;;;5.86;99.31;97785.91;1821437;79;21293;-58
2020/12/25 04:39:14;;;;;;;31.75;17.30;;;;;;;5.89;99.28;97792.77;1821479;79;21150;-58
2020/12/25 04:41:42;;;;;;;34.53;18.35;;;;;;;5.93;99.24;97788.52;1821387;79;21150;-59
2020/12/25 04:44:10;;;;;;;29.35;17.75;;;;;;;5.97;99.21;97794.16;1821577;79;21252;-58
2020/12/25 04:46:37;;;;;;;33.88;20.52;;;;;;;6.04;99.08;97791.67;1821420;79;21126;-62
2020/12/25 04:49:07;;;;;;;33.60;19.27;;;;;;;6.09;98.84;97802.83;1821608;79;21176;-59
2020/12/25 04:51:36;;;;;;;33.02;19.00;;;;;;;6.11;98.62;97804.13;1821647;79;21164;-59
2020/12/25 04:54:03;;;;;;;32.85;18.52;;;;;;;6.09;98.20;97804.11;1821376;79;21150;-59
2020/12/25 04:56:31;;;;;;;32.67;18.05;;;;;;;6.07;98.34;97811.34;1821720;79;21114;-59
2020/12/25 04:58:59;;;;;;;32.73;17.75;;;;;;;6.07;98.23;97819.02;1821628;79;21157;-59
2020/12/25 05:01:26;;;;;;;34.63;19.12;;;;;;;6.06;98.25;97814.33;1821576;79;21268;-59
2020/12/25 05:03:54;;;;;;;31.93;18.62;;;;;;;6.09;98.18;97809.66;1809287;78;21182;-59
2020/12/25 05:06:22;;;;;;;33.23;18.87;;;;;;;6.11;97.98;97804.13;1788602;79;21216;-59
2020/12/25 05:08:52;;;;;;;35.60;19.02;;;;;;;6.05;97.79;97804.91;1788509;80;21147;-59
2020/12/25 05:11:21;;;;;;;31.87;18.65;;;;;;;6.04;98.00;97816.44;1788254;79;21147;-58
2020/12/25 05:13:54;;;;;;;36.25;20.32;;;;;;;6.04;97.94;97817.28;1788330;80;21143;-59
2020/12/25 05:16:23;;;;;;;32.83;19.52;;;;;;;6.04;97.78;97825.40;1786882;80;21281;-59
2020/12/25 05:18:52;;;;;;;33.35;19.30;;;;;;;6.03;97.81;97819.81;1767447;81;21162;-59
2020/12/25 05:21:22;;;;;;;36.25;20.50;;;;;;;6.06;97.86;97823.72;1767238;81;21150;-59
2020/12/25 05:23:50;;;;;;;32.98;20.23;;;;;;;6.07;97.64;97826.28;1767323;81;21178;-59
2020/12/25 05:26:18;;;;;;;34.40;20.27;;;;;;;6.08;97.59;97820.72;1767237;81;21349;-59
2020/12/25 05:28:50;;;;;;;30.57;18.90;;;;;;;6.11;97.60;97821.17;1767228;81;21170;-59
2020/12/25 05:31:19;;;;;;;37.85;20.65;;;;;;;6.13;97.47;97824.22;1767313;81;21190;-59
2020/12/25 05:33:49;;;;;;;36.08;19.52;;;;;;;6.15;97.23;97840.44;1767314;81;21309;-59
2020/12/25 05:36:17;;;;;;;34.33;20.05;;;;;;;6.13;97.10;97840.88;1767392;81;21728;-59
2020/12/25 05:38:50;;;;;;;33.38;19.62;;;;;;;6.07;96.92;97851.03;1767347;81;21297;-60
2020/12/25 05:41:18;;;;;;;30.77;19.05;;;;;;;6.05;97.05;97837.34;1767312;81;21309;-60
2020/12/25 05:43:49;;;;;;;33.10;20.77;;;;;;;6.02;97.08;97845.86;1767538;81;21301;-59
2020/12/25 05:46:17;;;;;;;34.25;20.37;;;;;;;6.03;97.23;97864.24;1767425;81;21178;-59
2020/12/25 05:48:49;;;;;;;33.08;21.40;;;;;;;6.04;97.01;97860.83;1767402;81;21155;-60
2020/12/25 05:51:16;;;;;;;37.33;21.07;;;;;;;6.03;97.00;97859.52;1773053;80;21154;-60
2020/12/25 05:53:45;;;;;;;33.60;20.30;;;;;;;6.03;97.00;97856.95;1775167;81;21154;-60
2020/12/25 05:56:15;;;;;;;32.70;19.00;;;;;;;6.05;97.14;97856.55;1775176;81;21175;-60
2020/12/25 05:58:44;;;;;;;34.55;20.12;;;;;;;6.10;96.98;97867.70;1775391;81;21148;-60
2020/12/25 06:01:12;;;;;;;31.97;19.67;;;;;;;6.14;96.79;97862.22;1775270;81;21276;-59
2020/12/25 06:03:39;;;;;;;33.10;20.85;;;;;;;6.15;96.72;97866.05;1776556;79;21163;-60
2020/12/25 06:06:14;;;;;;;36.50;21.93;;;;;;;6.16;96.63;97873.34;1786427;80;21358;-59
2020/12/25 06:08:58;;;;;;;32.75;20.88;;;;;;;6.15;96.54;97883.13;1786263;80;21145;-58
2020/12/25 06:11:31;;;;;;;33.20;20.70;;;;;;;6.17;96.66;97888.71;1786272;79;21142;-59
2020/12/25 06:13:59;;;;;;;36.15;20.55;;;;;;;6.21;96.57;97885.35;1786240;80;21150;-59
2020/12/25 06:16:28;;;;;;;35.17;20.70;;;;;;;6.25;96.38;97887.09;1786311;80;21102;-60
2020/12/25 06:19:07;;;;;;;34.05;19.80;;;;;;;6.25;96.31;97884.52;1786470;80;21153;-59
2020/12/25 06:21:53;;;;;;;31.35;19.77;;;;;;;6.26;96.25;97893.09;1786389;80;21145;-59
2020/12/25 06:24:25;;;;;;;32.08;18.35;;;;;;;6.26;96.05;97896.51;1773662;80;21576;-59
2020/12/25 06:26:54;;;;;;;32.48;19.70;;;;;;;6.30;96.11;97905.93;1778336;81;21110;-60
2020/12/25 06:29:22;;;;;;;33.83;19.92;;;;;;;6.32;95.93;97900.83;1778480;81;21106;-60
2020/12/25 06:31:54;;;;;;;31.73;19.30;;;;;;;6.34;95.79;97909.40;1778367;81;21129;-60
2020/12/25 06:34:22;;;;;;;28.90;18.15;;;;;;;6.34;95.68;97914.52;1778227;80;21067;-60
2020/12/25 06:36:50;;;;;;;32.42;19.10;;;;;;;6.32;95.41;97912.79;1778191;81;21042;-60
2020/12/25 06:39:22;;;;;;;26.82;18.37;;;;;;;6.28;95.46;97917.89;1778164;81;21176;-59
2020/12/25 06:41:49;;;;;;;32.95;19.17;;;;;;;6.27;95.52;97911.45;1773988;79;21011;-60
2020/12/25 06:44:18;;;;;;;32.63;20.48;;;;;;;6.29;95.48;97919.59;1773033;81;21070;-60
2020/12/25 06:46:50;;;;;;;32.08;20.40;;;;;;;6.32;95.39;97923.04;1772808;81;21074;-61
2020/12/25 06:49:20;;;;;;;41.58;22.77;;;;;;;6.30;95.26;97927.70;1772990;81;21058;-60
2020/12/25 06:51:48;;;;;;;33.70;20.27;;;;;;;6.29;95.15;97928.56;1773083;81;21055;-60
2020/12/25 06:54:21;;;;;;;33.98;20.62;;;;;;;6.28;95.18;97942.23;1783156;79;20987;-61
2020/12/25 06:56:54;;;;;;;32.15;21.95;;;;;;;6.29;95.31;97945.22;1784196;79;20992;-60
2020/12/25 06:59:24;;;;;;;35.10;21.50;;;;;;;6.32;95.17;97946.95;1781060;79;20995;-60
2020/12/25 07:01:52;;;;;;;32.35;20.77;;;;;;;6.34;95.04;97946.98;1784882;79;21137;-60
2020/12/25 07:04:31;;;;;;;30.37;20.23;;;;;;;6.32;94.92;97950.80;1796060;79;21068;-60
2020/12/25 07:07:06;;;;;;;31.60;18.05;;;;;;;6.28;94.95;97947.35;1746072;82;21198;-70
2020/12/25 07:09:39;;;;;;;28.65;19.55;;;;;;;6.26;95.03;97944.33;1790270;80;21040;-60
2020/12/25 07:12:23;;;;;;;30.60;19.20;;;;;;;6.29;95.09;97941.38;1815197;79;21051;-61
2020/12/25 07:14:51;;;;;;;33.30;19.00;;;;;;;6.35;95.00;97941.00;1745978;82;21043;-61
2020/12/25 07:17:19;;;;;;;29.75;18.07;;;;;;;6.37;94.77;97957.26;1815341;79;21031;-60
2020/12/25 07:19:46;;;;;;;28.55;17.37;;;;;;;6.37;94.79;97961.95;1815262;79;21042;-62
2020/12/25 07:22:14;;;;;;;30.20;18.35;;;;;;;6.38;94.70;97958.97;1815287;79;21043;-65
2020/12/25 07:24:43;;;;;;;27.98;17.87;;;;;;;6.39;94.70;97959.42;1815323;79;21189;-60
2020/12/25 07:27:13;;;;;;;26.30;16.77;;;;;;;6.41;94.77;97966.28;1722546;82;21225;-61
2020/12/25 07:29:44;;;;;;;27.80;17.48;;;;;;;6.46;94.55;97971.44;1792160;79;21011;-60
2020/12/25 07:32:13;;;;;;;31.23;18.25;;;;;;;6.44;94.47;97966.74;1783440;80;21050;-65
2020/12/25 07:34:41;;;;;;;30.48;19.92;;;;;;;6.46;94.46;97972.72;1783300;80;21043;-65
2020/12/25 07:37:10;;;;;;;27.77;18.42;;;;;;;6.44;94.33;97977.84;1783317;79;21130;-68
2020/12/25 07:39:38;;;;;;;28.47;16.45;;;;;;;6.42;94.46;97979.53;1783545;79;21465;-66
2020/12/25 07:42:08;;;;;;;33.90;18.67;;;;;;;6.42;94.52;97981.23;1783581;79;21050;-62
2020/12/25 07:44:36;;;;;;;31.33;20.32;;;;;;;6.43;94.48;97983.80;1783387;80;21035;-60
2020/12/25 07:47:03;;;;;;;32.20;21.00;;;;;;;6.44;94.44;97991.09;1783490;79;21169;-61
2020/12/25 07:49:31;;;;;;;33.55;22.73;;;;;;;6.42;94.42;97992.34;1783393;80;21239;-73
2020/12/25 07:51:59;;;;;;;31.75;20.30;;;;;;;6.41;94.46;98005.13;1783442;80;21094;-59
2020/12/25 07:54:28;;;;;;;32.03;19.10;;;;;;;6.44;94.54;98005.19;1783593;80;21055;-41
2020/12/25 07:56:56;;;;;;;29.30;18.65;;;;;;;6.50;95.12;98007.80;1783550;79;21181;-41
2020/12/25 07:59:25;;;;;;;27.15;17.12;;;;;;;6.81;94.88;98006.86;1783583;80;21062;-41
2020/12/25 08:01:57;;;;;;;28.62;17.07;;;;;;;6.87;93.94;98009.08;1783423;79;21204;-42
2020/12/25 08:04:26;;;;;;;27.50;18.15;;;;;;;6.87;93.58;98016.77;1753675;78;21896;-42
2020/12/25 08:06:54;;;;;;;28.52;18.42;;;;;;;6.86;93.57;98012.89;1762482;79;21465;-59
2020/12/25 08:09:24;;;;;;;28.38;17.23;;;;;;;6.84;93.24;98019.28;1755171;82;21029;-60
2020/12/25 08:11:52;;;;;;;29.57;19.27;;;;;;;6.83;93.10;98018.86;1728617;83;21172;-59
2020/12/25 08:14:21;;;;;;;29.60;18.70;;;;;;;6.83;92.94;98030.82;1754917;80;21022;-59
2020/12/25 08:16:50;;;;;;;31.42;17.73;;;;;;;6.79;92.91;98022.22;1728278;82;21185;-59
2020/12/25 08:19:18;;;;;;;27.65;17.32;;;;;;;6.77;92.77;98027.78;1744550;80;21030;-59
2020/12/25 08:21:45;;;;;;;30.40;18.52;;;;;;;6.73;92.76;98026.02;1753336;82;21188;-59
2020/12/25 08:24:13;;;;;;;26.33;17.15;;;;;;;6.70;92.73;98029.83;1785828;80;21157;-59
2020/12/25 08:26:41;;;;;;;26.25;16.23;;;;;;;6.69;92.75;98026.41;1758263;81;21050;-60
2020/12/25 08:29:10;;;;;;;30.20;18.90;;;;;;;6.68;92.50;98040.48;1785920;80;21056;-59
2020/12/25 08:31:40;;;;;;;27.07;16.50;;;;;;;6.59;92.67;98041.25;1758342;81;21093;-59
2020/12/25 08:34:25;;;;;;;26.90;16.60;;;;;;;6.56;92.84;98041.19;1785987;80;21051;-60
2020/12/25 08:36:57;;;;;;;25.23;15.70;;;;;;;6.53;92.80;98041.16;1758275;81;21067;-62
2020/12/25 08:39:30;;;;;;;28.23;17.45;;;;;;;6.57;92.93;98042.08;1786123;80;21168;-61
2020/12/25 08:41:58;;;;;;;25.77;16.45;;;;;;;6.63;92.90;98049.39;1758194;81;21067;-62
2020/12/25 08:44:28;;;;;;;27.50;17.45;;;;;;;6.66;92.78;98044.73;1785858;80;21164;-63
2020/12/25 08:47:10;;;;;;;24.20;15.38;;;;;;;6.71;92.75;98035.37;1758652;81;21090;-59
2020/12/25 08:49:40;;;;;;;30.17;16.57;;;;;;;6.72;92.10;98037.98;1784766;80;21054;-62
2020/12/25 08:52:23;;;;;;;30.97;18.90;;;;;;;6.70;92.20;98042.22;1758337;81;21098;-62
2020/12/25 08:54:55;;;;;;;;;;;;;;;6.76;92.06;98041.84;1788545;80;21205;-61
2020/12/25 08:57:24;;;;;;;37.73;22.77;;;;;;;6.79;91.57;98040.59;1772269;81;20164;-61
2020/12/25 09:00:07;;;;;;;28.12;19.25;;;;;;;6.81;91.46;98031.22;1758063;81;21220;-60
2020/12/25 09:02:34;;;;;;;29.50;17.75;;;;;;;6.82;91.05;98023.55;1725081;83;21170;-61
2020/12/25 09:05:02;;;;;;;23.75;15.72;;;;;;;6.82;90.63;98021.39;1727172;83;21122;-60
2020/12/25 09:07:30;;;;;;;21.52;13.83;;;;;;;6.83;90.47;98031.67;1789460;80;21172;-62
2020/12/25 09:09:58;;;;;;;28.30;15.80;;;;;;;6.91;90.30;98031.75;1789228;80;21069;-61
2020/12/25 09:12:26;;;;;;;25.20;16.23;;;;;;;7.02;90.16;98032.74;1810551;79;20976;-61
2020/12/25 09:14:53;;;;;;;26.57;15.60;;;;;;;7.13;89.74;98031.56;1813380;79;21023;-60
2020/12/25 09:17:21;;;;;;;26.70;15.58;;;;;;;7.24;89.52;98036.36;1813325;79;21225;-60
2020/12/25 09:19:49;;;;;;;27.13;16.17;;;;;;;7.33;89.10;98036.45;1813536;79;21055;-60
2020/12/25 09:22:16;;;;;;;26.15;16.07;;;;;;;7.39;88.85;98030.50;1813277;79;21185;-61
2020/12/25 09:24:44;;;;;;;25.17;15.95;;;;;;;7.41;88.41;98043.36;1813413;79;21007;-61
2020/12/25 09:27:13;;;;;;;26.25;16.70;;;;;;;7.38;88.43;98033.93;1813315;79;21165;-61
2020/12/25 09:29:41;;;;;;;27.00;17.23;;;;;;;7.39;88.35;98031.78;1813274;79;20999;-61
2020/12/25 09:32:09;;;;;;;28.77;18.45;;;;;;;7.36;88.11;98033.05;1791853;79;21215;-61
2020/12/25 09:34:37;;;;;;;25.68;16.97;;;;;;;7.34;87.87;98037.30;1789299;79;21062;-61
2020/12/25 09:37:04;;;;;;;25.82;16.95;;;;;;;7.26;87.80;98035.95;1816967;79;21622;-62
2020/12/25 09:39:34;;;;;;;24.70;16.25;;;;;;;7.23;87.97;98027.37;1818242;79;21153;-61
2020/12/25 09:42:02;;;;;;;25.37;15.90;;;;;;;7.17;88.02;98027.77;1794322;79;21062;-61
2020/12/25 09:44:29;;;;;;;24.47;15.23;;;;;;;7.10;88.19;98028.55;1798131;79;21196;-61
2020/12/25 09:46:57;;;;;;;27.67;17.62;;;;;;;7.03;88.36;98028.04;1751651;80;21106;-59
2020/12/25 09:49:24;;;;;;;24.82;15.78;;;;;;;6.99;88.49;98028.84;1789100;79;21407;-61
2020/12/25 09:51:52;;;;;;;22.22;13.35;;;;;;;6.94;88.51;98027.94;1750996;79;21110;-62
2020/12/25 09:54:19;;;;;;;22.15;13.75;;;;;;;6.87;88.68;98008.19;1799031;79;21191;-63
2020/12/25 09:56:49;;;;;;;21.37;13.83;;;;;;;6.85;88.80;98006.91;1803526;78;21036;-62
2020/12/25 09:59:17;;;;;;;19.48;13.00;;;;;;;6.87;88.89;98006.52;1811404;78;21054;-69
2020/12/25 10:01:45;;;;;;;19.80;13.50;;;;;;;6.91;88.90;98012.52;1825606;78;21050;-69
2020/12/25 10:04:13;;;;;;;20.65;13.15;;;;;;;6.92;88.79;98009.09;1828318;78;21614;-70
2020/12/25 10:06:40;;;;;;;18.48;11.90;;;;;;;6.92;88.75;98010.38;1813968;79;21086;-69
2020/12/25 10:09:08;;;;;;;17.32;11.28;;;;;;;6.93;88.64;98003.14;1740184;82;21494;-69
2020/12/25 10:11:37;;;;;;;18.12;12.30;;;;;;;6.96;88.61;98001.45;1826295;77;21074;-71
2020/12/25 10:14:05;;;;;;;20.12;12.25;;;;;;;7.04;88.62;97995.55;1822556;77;21055;-70
2020/12/25 10:16:34;;;;;;;20.55;14.15;;;;;;;7.10;88.28;97997.76;1821533;79;21169;-69
2020/12/25 10:19:02;;;;;;;27.25;15.18;;;;;;;7.12;88.18;98001.20;1821268;79;21030;-68
2020/12/25 10:21:30;;;;;;;23.85;16.00;;;;;;;7.15;88.05;98001.66;1799421;79;21039;-71
2020/12/25 10:23:58;;;;;;;29.75;14.58;;;;;;;7.18;87.83;98005.09;1821259;79;21176;-69
2020/12/25 10:26:26;;;;;;;24.02;15.20;;;;;;;7.16;87.59;98013.63;1821090;79;21181;-69
2020/12/25 10:28:54;;;;;;;23.15;14.65;;;;;;;7.14;87.76;98018.73;1821495;79;21043;-71
2020/12/25 10:31:21;;;;;;;24.25;13.93;;;;;;;7.23;87.92;98019.68;1821247;79;21243;-70
2020/12/25 10:33:49;;;;;;;19.70;13.50;;;;;;;7.36;87.88;98024.06;1821305;79;21517;-70
2020/12/25 10:36:18;;;;;;;22.02;13.90;;;;;;;7.46;87.54;98026.30;1821316;79;21492;-68
2020/12/25 10:38:46;;;;;;;20.77;12.50;;;;;;;7.52;87.44;98025.90;1821026;79;21449;-70
2020/12/25 10:41:13;;;;;;;21.55;12.55;;;;;;;7.55;87.23;98037.47;1821242;79;21192;-70
2020/12/25 10:43:41;;;;;;;21.60;13.00;;;;;;;7.52;87.34;98037.88;1821381;79;21035;-70
2020/12/25 10:46:09;;;;;;;19.60;12.70;;;;;;;7.53;87.02;98043.44;1821247;79;21015;-70
2020/12/25 10:48:38;;;;;;;25.92;16.65;;;;;;;7.47;86.77;98031.84;1821304;79;21038;-70
2020/12/25 10:51:07;;;;;;;25.10;13.90;;;;;;;7.44;86.74;98034.39;1821437;79;21466;-69
2020/12/25 10:53:35;;;;;;;25.25;14.70;;;;;;;7.36;86.49;98034.33;1821317;79;21056;-69
2020/12/25 10:56:04;;;;;;;25.10;13.22;;;;;;;7.28;86.41;98031.70;1819997;79;21461;-69
2020/12/25 10:58:31;;;;;;;20.15;11.38;;;;;;;7.25;86.57;98043.23;1746016;82;21051;-70
2020/12/25 11:00:58;;;;;;;21.68;12.07;;;;;;;7.23;86.27;98033.80;1815290;79;21101;-70
2020/12/25 11:03:28;;;;;;;17.73;9.83;;;;;;;7.22;86.35;98033.34;1815367;79;21007;-68
2020/12/25 11:05:55;;;;;;;14.20;9.20;;;;;;;7.21;85.91;98035.05;1815258;79;21211;-69
2020/12/25 11:08:23;;;;;;;11.85;8.30;;;;;;;7.21;85.46;98041.89;1746110;82;21016;-69
2020/12/25 11:10:50;;;;;;;13.93;9.43;;;;;;;7.25;85.37;98044.51;1790370;80;21072;-68
2020/12/25 11:13:18;;;;;;;15.68;9.83;;;;;;;7.28;85.07;98043.67;1746347;82;21109;-70
2020/12/25 11:15:46;;;;;;;22.10;11.65;;;;;;;7.26;84.93;98046.22;1746150;82;21023;-70
2020/12/25 11:18:13;;;;;;;17.35;11.48;;;;;;;7.25;85.26;98064.16;1815441;79;21008;-68
2020/12/25 11:20:43;;;;;;;17.50;10.68;;;;;;;7.26;85.45;98046.64;1815741;79;21031;-68
2020/12/25 11:23:11;;;;;;;15.70;10.63;;;;;;;7.23;85.40;98060.31;1746189;82;21047;-69
2020/12/25 11:25:39;;;;;;;19.12;11.35;;;;;;;7.18;85.60;98065.39;1746306;82;21473;-70
2020/12/25 11:28:07;;;;;;;16.52;11.22;;;;;;;7.21;85.81;98076.53;1790323;80;21099;-69
2020/12/25 11:30:34;;;;;;;17.67;11.75;;;;;;;7.15;85.88;98079.91;1815546;79;21157;-66
2020/12/25 11:33:02;;;;;;;16.15;11.20;;;;;;;7.10;86.13;98074.72;1815524;79;21173;-68